Time;durP1;ratioP1;P1;durP2;ratioP2;P2;SDS_P1;SDS_P2;PMS_P1;PMS_P2;Temp;Humidity;BMP_temperature;BMP_pressure;BME280_temperature;BME280_humidity;BME280_pressure;Samples;Min_cycle;Max_cycle;Signal;HPM_P1;HPM_P2
2022/08/24 00:00:33;;;;;;;14.05;12.07;;;;;;;25.08;50.94;101568.53;5090948;28;20043;-68
2022/08/24 00:03:01;;;;;;;14.13;11.50;;;;;;;25.08;50.96;101563.03;5091168;28;20068;-68
2022/08/24 00:05:28;;;;;;;14.30;12.25;;;;;;;25.08;51.00;101565.78;5090832;28;20164;-68
2022/08/24 00:07:54;;;;;;;15.80;12.85;;;;;;;25.07;50.97;101558.56;5090817;28;20036;-68
2022/08/24 00:10:21;;;;;;;13.95;12.23;;;;;;;25.05;50.92;101566.16;5090949;28;20402;-68
2022/08/24 00:12:48;;;;;;;17.45;13.30;;;;;;;24.99;50.90;101561.38;5094276;28;20122;-68
2022/08/24 00:15:16;;;;;;;14.68;12.15;;;;;;;24.94;50.79;101566.56;5094804;27;20548;-68
2022/08/24 00:17:43;;;;;;;16.20;12.55;;;;;;;24.90;50.96;101567.97;5094927;28;20453;-68
2022/08/24 00:20:12;;;;;;;13.70;12.20;;;;;;;24.87;51.20;101565.59;5094685;28;20043;-68
2022/08/24 00:22:39;;;;;;;17.27;14.23;;;;;;;24.85;50.99;101568.53;5094319;28;20048;-68
2022/08/24 00:25:11;;;;;;;15.63;12.43;;;;;;;24.84;51.08;101568.72;5095310;28;20050;-67
2022/08/24 00:27:39;;;;;;;16.40;13.48;;;;;;;24.82;51.09;101571.63;5094697;27;20044;-67
2022/08/24 00:30:10;;;;;;;15.05;13.05;;;;;;;24.82;51.17;101570.78;5094485;28;20051;-68
2022/08/24 00:32:36;;;;;;;15.95;13.85;;;;;;;24.82;51.16;101570.78;5091213;28;20036;-67
2022/08/24 00:35:08;;;;;;;16.55;14.85;;;;;;;24.79;51.25;101576.66;5093043;28;20048;-67
2022/08/24 00:37:36;;;;;;;17.10;13.93;;;;;;;24.78;51.38;101583.19;5092948;28;20131;-67
2022/08/24 00:40:10;;;;;;;15.43;13.30;;;;;;;24.75;51.27;101573.41;5094320;28;20044;-67
2022/08/24 00:42:38;;;;;;;17.77;14.80;;;;;;;24.73;51.25;101572.75;5076314;28;20447;-67
2022/08/24 00:45:08;;;;;;;14.43;12.20;;;;;;;24.71;51.11;101580.31;5094375;28;20040;-68
2022/08/24 00:47:48;;;;;;;14.40;11.77;;;;;;;24.62;50.78;101575.94;5094804;28;20093;-68
2022/08/24 00:50:23;;;;;;;13.35;11.50;;;;;;;24.50;50.90;101575.47;5092962;28;20040;-67
2022/08/24 00:52:57;;;;;;;16.92;13.25;;;;;;;24.35;51.00;101580.03;5093949;28;20402;-68
2022/08/24 00:55:31;;;;;;;15.55;13.02;;;;;;;24.26;51.14;101581.09;5094056;27;20067;-68
2022/08/24 00:58:05;;;;;;;16.03;13.13;;;;;;;24.21;51.34;101572.53;5092782;28;20402;-67
2022/08/24 01:00:38;;;;;;;17.80;15.63;;;;;;;24.19;51.49;101580.09;5093526;28;20490;-67
2022/08/24 01:03:09;;;;;;;19.33;14.57;;;;;;;24.20;51.36;101584.56;5092544;28;20040;-68
2022/08/24 01:05:37;;;;;;;15.32;13.73;;;;;;;24.20;51.52;101582.66;5092286;28;20048;-67
2022/08/24 01:08:07;;;;;;;17.25;13.55;;;;;;;24.21;51.66;101589.00;5093780;28;20445;-68
2022/08/24 01:10:42;;;;;;;18.10;15.57;;;;;;;24.21;51.82;101583.50;5093951;28;20117;-68
2022/08/24 01:13:14;;;;;;;18.25;15.15;;;;;;;24.20;52.00;101581.81;5092568;28;20109;-69
2022/08/24 01:15:46;;;;;;;19.60;17.55;;;;;;;24.20;51.83;101587.28;5093363;28;20063;-68
2022/08/24 01:21:16;;;;;;;18.75;15.85;;;;;;;24.04;52.06;101574.50;5093664;28;20382;-68
2022/08/24 01:23:56;;;;;;;18.42;16.20;;;;;;;23.98;51.87;101578.84;5091093;28;20040;-68
2022/08/24 01:26:45;;;;;;;17.92;15.75;;;;;;;23.96;52.12;101585.53;5092083;28;20098;-67
2022/08/24 01:29:21;;;;;;;19.13;16.42;;;;;;;23.95;52.25;101589.31;5090598;28;20498;-67
2022/08/24 01:31:49;;;;;;;21.02;16.38;;;;;;;23.94;52.37;101584.84;5090713;28;20040;-67
2022/08/24 01:34:17;;;;;;;19.90;17.70;;;;;;;23.89;52.34;101579.91;5092198;28;20051;-67
2022/08/24 01:36:47;;;;;;;22.88;18.02;;;;;;;23.85;52.46;101584.03;5092073;28;20052;-67
2022/08/24 01:39:25;;;;;;;20.40;17.98;;;;;;;23.84;52.64;101586.97;5091724;27;20044;-68
2022/08/24 01:41:52;;;;;;;20.52;18.42;;;;;;;23.83;52.60;101586.09;5071647;28;20143;-67
2022/08/24 01:44:22;;;;;;;19.77;17.63;;;;;;;23.81;52.57;101587.31;5072025;28;20055;-67
2022/08/24 01:46:52;;;;;;;24.33;18.75;;;;;;;23.79;52.75;101583.88;5075551;28;20040;-68
2022/08/24 01:49:21;;;;;;;21.33;17.08;;;;;;;23.76;52.58;101585.06;5092803;28;20469;-67
2022/08/24 01:51:48;;;;;;;20.20;17.05;;;;;;;23.72;52.61;101580.97;5092894;28;20028;-68
2022/08/24 01:54:15;;;;;;;18.63;16.25;;;;;;;23.66;52.48;101577.03;5091825;28;20036;-68
2022/08/24 01:56:42;;;;;;;17.75;15.85;;;;;;;23.62;52.50;101583.06;5091404;28;20071;-68
2022/08/24 01:59:11;;;;;;;19.83;17.88;;;;;;;23.57;52.74;101582.75;5092156;28;20064;-68
2022/08/24 02:01:42;;;;;;;19.20;17.33;;;;;;;23.55;52.69;101582.91;5091143;28;20043;-68
2022/08/24 02:04:14;;;;;;;19.38;17.48;;;;;;;23.56;53.20;101586.50;5092934;28;20040;-68
2022/08/24 02:06:46;;;;;;;18.65;16.30;;;;;;;23.57;53.01;101585.47;5091568;28;20052;-68
2022/08/24 02:09:14;;;;;;;21.35;16.52;;;;;;;23.57;52.72;101577.25;5091326;28;20509;-68
2022/08/24 02:11:42;;;;;;;20.33;18.05;;;;;;;23.58;52.78;101582.56;5090943;28;20476;-67
2022/08/24 02:14:11;;;;;;;21.27;18.60;;;;;;;23.57;52.68;101580.84;5091465;28;20502;-67
2022/08/24 02:16:40;;;;;;;20.02;17.30;;;;;;;23.56;52.85;101576.41;5091066;28;20038;-68
2022/08/24 02:19:07;;;;;;;19.63;17.48;;;;;;;23.55;52.90;101571.09;5074241;28;20497;-68
2022/08/24 02:21:34;;;;;;;19.35;17.23;;;;;;;23.55;52.78;101579.31;5092213;28;20032;-67
2022/08/24 02:24:01;;;;;;;22.45;20.05;;;;;;;23.54;52.57;101575.69;5092582;28;20456;-68
2022/08/24 02:26:28;;;;;;;20.70;18.25;;;;;;;23.46;52.70;101576.56;5091025;28;20089;-68
2022/08/24 02:28:57;;;;;;;22.92;18.73;;;;;;;23.37;52.51;101588.59;5087643;28;20051;-67
2022/08/24 02:31:25;;;;;;;23.35;17.80;;;;;;;23.31;52.60;101585.69;5090698;28;20048;-67
2022/08/24 02:33:56;;;;;;;17.63;15.93;;;;;;;23.22;52.76;101584.84;5091944;28;20067;-67
2022/08/24 02:36:23;;;;;;;21.35;18.15;;;;;;;23.17;52.98;101584.50;5090461;28;20044;-67
2022/08/24 02:38:53;;;;;;;19.30;17.27;;;;;;;23.12;52.58;101593.25;5090658;28;20463;-67
2022/08/24 02:41:24;;;;;;;19.40;17.23;;;;;;;23.10;52.87;101586.22;5074148;28;20051;-67
2022/08/24 02:43:55;;;;;;;21.63;17.80;;;;;;;23.07;52.95;101590.16;5091106;28;20100;-67
2022/08/24 02:46:27;;;;;;;20.90;18.33;;;;;;;23.06;52.98;101593.94;5090556;28;20098;-67
2022/08/24 02:48:57;;;;;;;23.58;19.90;;;;;;;23.05;53.15;101596.84;5090423;28;20435;-67
2022/08/24 02:51:37;;;;;;;23.40;19.08;;;;;;;22.99;52.77;101600.25;5075323;28;20044;-67
2022/08/24 02:54:16;;;;;;;23.95;20.85;;;;;;;22.94;53.46;101599.91;5090872;28;20044;-67
2022/08/24 02:56:46;;;;;;;23.48;20.75;;;;;;;22.92;53.06;101601.97;5090375;28;20385;-68
2022/08/24 02:59:14;;;;;;;21.88;19.10;;;;;;;22.90;53.38;101604.88;5090241;27;20127;-68
2022/08/24 03:01:41;;;;;;;22.08;18.65;;;;;;;22.89;53.53;101605.03;5090450;28;20506;-68
2022/08/24 03:04:09;;;;;;;24.38;18.02;;;;;;;22.84;53.30;101597.34;5090684;28;20495;-68
2022/08/24 03:06:36;;;;;;;20.33;18.10;;;;;;;22.80;53.40;101596.81;5090177;28;20075;-68
2022/08/24 03:09:03;;;;;;;22.23;18.15;;;;;;;22.79;53.40;101591.47;5090165;28;20040;-68
2022/08/24 03:11:30;;;;;;;21.40;17.80;;;;;;;22.79;53.18;101595.06;5089984;28;20331;-68
2022/08/24 03:14:00;;;;;;;23.77;20.75;;;;;;;22.79;53.37;101595.06;5090096;28;20040;-68
2022/08/24 03:16:28;;;;;;;32.00;21.50;;;;;;;22.78;53.52;101593.38;5089971;28;20470;-69
2022/08/24 03:18:55;;;;;;;22.70;19.80;;;;;;;22.79;53.64;101603.28;5090063;28;20036;-67
2022/08/24 03:21:24;;;;;;;24.13;21.63;;;;;;;22.78;53.51;101595.25;5089753;28;20056;-68
2022/08/24 03:23:53;;;;;;;26.80;23.70;;;;;;;22.75;53.29;101590.97;5090185;28;20044;-68
2022/08/24 03:26:21;;;;;;;25.13;22.27;;;;;;;22.72;53.52;101590.44;5089719;28;20137;-69
2022/08/24 03:28:49;;;;;;;24.80;21.27;;;;;;;22.70;53.52;101590.63;5089789;28;20043;-68
2022/08/24 03:31:17;;;;;;;25.45;22.92;;;;;;;22.66;53.46;101592.00;5089623;28;20036;-68
2022/08/24 03:33:49;;;;;;;26.67;23.88;;;;;;;22.62;53.53;101596.09;5089737;28;20036;-68
2022/08/24 03:36:17;;;;;;;26.95;23.10;;;;;;;22.58;53.59;101594.72;5090861;28;20042;-68
2022/08/24 03:38:43;;;;;;;26.92;23.70;;;;;;;22.55;53.22;101581.38;5090689;28;20438;-68
2022/08/24 03:41:10;;;;;;;26.52;22.67;;;;;;;22.54;53.71;101587.88;5072074;28;20044;-68
2022/08/24 03:43:50;;;;;;;25.98;22.20;;;;;;;22.54;53.52;101579.66;5091178;28;20467;-68
2022/08/24 03:46:26;;;;;;;26.58;21.58;;;;;;;22.54;53.87;101576.91;5092675;28;20101;-68
2022/08/24 03:48:56;;;;;;;26.88;23.05;;;;;;;22.53;53.47;101575.22;5096693;28;20054;-68
2022/08/24 03:51:26;;;;;;;28.40;22.98;;;;;;;22.48;53.46;101581.19;5097660;28;20080;-68
2022/08/24 03:53:55;;;;;;;30.00;25.05;;;;;;;22.41;53.70;101574.69;5096622;27;20048;-67
2022/08/24 03:56:25;;;;;;;27.38;24.48;;;;;;;22.36;53.20;101576.22;5096572;28;20105;-67
2022/08/24 03:58:52;;;;;;;26.15;22.17;;;;;;;22.29;53.33;101586.06;5096498;28;20055;-68
2022/08/24 04:01:20;;;;;;;22.55;20.20;;;;;;;22.22;53.41;101576.81;5095897;28;20068;-67
2022/08/24 04:03:49;;;;;;;21.48;19.30;;;;;;;22.19;53.68;101578.88;5080681;28;20086;-68
2022/08/24 04:06:17;;;;;;;22.33;19.90;;;;;;;22.20;53.74;101583.31;5097731;28;20058;-67
2022/08/24 04:08:44;;;;;;;22.10;19.77;;;;;;;22.23;53.75;101584.88;5097512;28;20040;-67
2022/08/24 04:11:14;;;;;;;20.98;18.83;;;;;;;22.25;53.85;101585.56;5097754;28;20094;-67
2022/08/24 04:13:46;;;;;;;21.05;18.88;;;;;;;22.26;54.02;101590.00;5095958;28;20456;-67
2022/08/24 04:16:18;;;;;;;22.90;20.48;;;;;;;22.29;54.22;101589.66;5095842;28;20517;-68
2022/08/24 04:18:52;;;;;;;22.40;20.20;;;;;;;22.31;54.00;101590.41;5096201;28;20375;-66
2022/08/24 04:21:25;;;;;;;22.20;19.83;;;;;;;22.32;54.27;101589.38;5095924;28;20520;-67
2022/08/24 04:23:58;;;;;;;24.35;21.90;;;;;;;22.33;53.97;101596.56;5097813;28;20078;-67
2022/08/24 04:26:27;;;;;;;25.83;23.23;;;;;;;22.34;54.12;101600.16;5096470;28;20075;-67
2022/08/24 04:29:13;;;;;;;30.25;25.58;;;;;;;22.34;54.10;101605.63;5096139;27;20576;-67
2022/08/24 04:31:45;;;;;;;26.95;24.25;;;;;;;22.30;53.96;101604.25;5095880;28;20064;-68
2022/08/24 04:34:17;;;;;;;27.70;24.80;;;;;;;22.27;54.23;101601.81;5096599;28;20525;-67
2022/08/24 04:36:45;;;;;;;29.05;25.98;;;;;;;22.26;54.16;101600.09;5095834;28;20127;-67
2022/08/24 04:39:13;;;;;;;26.83;24.02;;;;;;;22.25;54.10;101601.13;5095897;28;20105;-68
2022/08/24 04:41:49;;;;;;;27.10;24.25;;;;;;;22.22;53.84;101609.66;5097149;28;20473;-68
2022/08/24 04:44:18;;;;;;;28.05;24.00;;;;;;;22.19;53.88;101605.38;5096104;28;20036;-68
2022/08/24 04:46:45;;;;;;;26.35;23.55;;;;;;;22.16;53.96;101608.44;5095703;28;20035;-67
2022/08/24 04:49:12;;;;;;;26.08;23.48;;;;;;;22.10;53.99;101601.75;5096119;28;20060;-66
2022/08/24 04:51:38;;;;;;;27.40;24.55;;;;;;;22.04;53.76;101610.63;5095566;28;20048;-66
2022/08/24 04:54:07;;;;;;;25.85;23.15;;;;;;;21.98;53.90;101611.25;5096387;28;20040;-67
2022/08/24 04:56:35;;;;;;;23.85;21.58;;;;;;;21.94;53.66;101611.75;5095710;28;20134;-68
2022/08/24 04:59:04;;;;;;;22.60;20.17;;;;;;;21.86;53.79;101615.31;5093573;28;20036;-68
2022/08/24 05:01:32;;;;;;;21.50;19.40;;;;;;;21.80;54.09;101614.09;5092459;28;20052;-68
2022/08/24 05:04:04;;;;;;;20.45;17.25;;;;;;;21.73;54.19;101621.22;5092998;28;20090;-68
2022/08/24 05:06:31;;;;;;;18.30;16.38;;;;;;;21.71;54.28;101623.25;5093573;27;20425;-68
2022/08/24 05:08:59;;;;;;;19.55;17.55;;;;;;;21.70;54.79;101626.16;5092685;28;20044;-66
2022/08/24 05:11:27;;;;;;;17.55;15.82;;;;;;;21.70;54.60;101627.03;5092298;28;20067;-67
2022/08/24 05:13:56;;;;;;;16.98;15.48;;;;;;;21.70;55.07;101627.03;5092422;28;20043;-67
2022/08/24 05:16:25;;;;;;;16.92;15.32;;;;;;;21.70;55.27;101628.91;5093548;28;20498;-66
2022/08/24 05:18:54;;;;;;;18.05;16.15;;;;;;;21.72;55.35;101632.31;5092081;28;20052;-66
2022/08/24 05:21:23;;;;;;;19.42;17.50;;;;;;;21.71;55.17;101634.19;5091930;28;20040;-66
2022/08/24 05:23:55;;;;;;;18.48;16.52;;;;;;;21.73;55.33;101634.03;5092608;28;20055;-66
2022/08/24 05:26:26;;;;;;;19.45;17.45;;;;;;;21.78;55.48;101637.13;5091867;28;20040;-66
2022/08/24 05:28:59;;;;;;;18.08;16.23;;;;;;;21.83;55.40;101638.38;5091905;28;20074;-67
2022/08/24 05:31:33;;;;;;;18.38;16.40;;;;;;;21.89;55.48;101648.66;5091939;28;20048;-67
2022/08/24 05:34:05;;;;;;;19.08;17.17;;;;;;;21.94;55.43;101644.56;5092179;28;20052;-67
2022/08/24 05:36:37;;;;;;;19.70;17.27;;;;;;;21.98;55.40;101644.06;5092312;28;20044;-67
2022/08/24 05:39:10;;;;;;;21.47;18.10;;;;;;;22.02;55.42;101642.72;5091941;28;20040;-67
2022/08/24 05:41:41;;;;;;;19.70;17.25;;;;;;;22.06;55.74;101638.69;5071570;28;20048;-66
2022/08/24 05:44:17;;;;;;;23.33;20.65;;;;;;;22.10;55.59;101648.25;5071757;28;20453;-68
2022/08/24 05:46:45;;;;;;;22.90;20.73;;;;;;;22.09;55.83;101651.16;5071743;28;20071;-68
2022/08/24 05:49:12;;;;;;;23.17;20.85;;;;;;;22.06;55.75;101652.34;5072954;28;20086;-66
2022/08/24 05:51:41;;;;;;;24.13;21.63;;;;;;;22.07;55.71;101658.69;5071649;28;20051;-66
2022/08/24 05:54:12;;;;;;;23.48;21.08;;;;;;;22.09;55.73;101652.03;5080097;28;20043;-66
2022/08/24 05:56:51;;;;;;;22.92;20.60;;;;;;;22.16;56.07;101655.81;5091828;28;20051;-67
2022/08/24 05:59:18;;;;;;;28.27;22.10;;;;;;;22.20;56.06;101662.66;5091602;28;20044;-68
2022/08/24 06:01:46;;;;;;;26.58;22.42;;;;;;;22.24;56.10;101660.47;5091567;28;20048;-68
2022/08/24 06:04:18;;;;;;;26.02;23.00;;;;;;;22.30;56.46;101654.34;5091993;28;20521;-67
2022/08/24 06:06:46;;;;;;;27.95;24.77;;;;;;;22.35;56.31;101649.25;5092769;27;20428;-67
2022/08/24 06:09:15;;;;;;;32.60;29.30;;;;;;;22.40;56.72;101648.75;5090599;28;20039;-68
2022/08/24 06:11:43;;;;;;;39.20;34.80;;;;;;;22.45;56.95;101651.84;5091258;28;20047;-67
2022/08/24 06:14:14;;;;;;;35.55;30.38;;;;;;;22.51;57.15;101656.63;5091182;28;20036;-68
2022/08/24 06:16:59;;;;;;;34.10;30.35;;;;;;;22.58;57.39;101667.78;5093098;28;20499;-68
2022/08/24 06:19:26;;;;;;;39.40;35.08;;;;;;;22.66;57.21;101667.78;5078184;28;20068;-68
2022/08/24 06:21:54;;;;;;;44.60;38.30;;;;;;;22.76;57.52;101668.50;5090905;28;20044;-68
2022/08/24 06:27:22;;;;;;;43.67;38.90;;;;;;;22.98;57.72;101667.88;5090437;28;20044;-67
2022/08/24 06:29:56;;;;;;;46.78;39.25;;;;;;;23.12;58.08;101675.44;5092471;28;20115;-68
2022/08/24 06:32:42;;;;;;;49.92;44.70;;;;;;;23.29;58.35;101670.81;5090963;28;20456;-68
2022/08/24 06:35:17;;;;;;;44.03;39.33;;;;;;;23.46;58.24;101674.41;5091068;28;20041;-68
2022/08/24 06:37:44;;;;;;;44.75;40.00;;;;;;;23.64;58.60;101674.25;5090653;28;20043;-68
2022/08/24 06:40:11;;;;;;;43.38;38.13;;;;;;;23.84;58.59;101682.97;5090790;28;20044;-68
2022/08/24 06:42:38;;;;;;;43.45;38.65;;;;;;;24.04;58.43;101673.31;5091999;28;20036;-69
2022/08/24 06:45:16;;;;;;;42.38;34.70;;;;;;;24.27;58.80;101677.00;5090791;28;20109;-70
2022/08/24 06:47:43;;;;;;;37.28;33.33;;;;;;;24.50;58.42;101674.31;5090888;28;20094;-69
2022/08/24 06:50:12;;;;;;;35.97;32.08;;;;;;;24.71;58.34;101674.56;5091711;28;20089;-69
2022/08/24 06:52:39;;;;;;;36.97;33.17;;;;;;;24.95;58.21;101678.19;5091958;28;20298;-70
2022/08/24 06:55:06;;;;;;;40.83;32.80;;;;;;;25.13;58.12;101670.50;5103172;28;20378;-69
2022/08/24 06:57:33;;;;;;;36.60;32.65;;;;;;;25.28;57.85;101679.69;5091605;28;20506;-70
2022/08/24 06:59:59;;;;;;;40.67;34.03;;;;;;;25.40;57.79;101679.25;5110855;28;20383;-69
2022/08/24 07:02:26;;;;;;;37.67;32.67;;;;;;;25.51;57.43;101674.16;5110853;28;20070;-70
2022/08/24 07:04:54;;;;;;;34.80;30.55;;;;;;;25.65;57.38;101677.97;5110714;28;20055;-70
2022/08/24 07:07:39;;;;;;;37.33;31.45;;;;;;;25.77;57.29;101679.25;5112269;28;20062;-70
2022/08/24 07:10:10;;;;;;;36.72;31.23;;;;;;;25.86;57.24;101680.00;5110694;28;20093;-70
2022/08/24 07:12:36;;;;;;;38.53;32.03;;;;;;;25.97;57.10;101683.16;5110532;28;20469;-70
2022/08/24 07:15:05;;;;;;;33.53;29.88;;;;;;;26.08;57.14;101676.34;5108976;28;20507;-70
2022/08/24 07:17:42;;;;;;;32.78;28.52;;;;;;;26.21;56.72;101678.44;5110622;28;20131;-70
2022/08/24 07:20:10;;;;;;;30.27;26.60;;;;;;;26.34;56.65;101681.38;5110195;28;20130;-70
2022/08/24 07:22:55;;;;;;;31.13;27.73;;;;;;;26.53;56.31;101680.78;5111989;28;20116;-69
2022/08/24 07:25:23;;;;;;;31.55;28.02;;;;;;;26.74;56.13;101681.84;5110233;28;20075;-69
2022/08/24 07:27:51;;;;;;;33.08;29.38;;;;;;;27.01;55.77;101677.53;5110132;28;20503;-68
2022/08/24 07:30:18;;;;;;;33.75;30.30;;;;;;;27.28;55.59;101686.91;5110226;28;20039;-68
2022/08/24 07:32:56;;;;;;;30.98;27.50;;;;;;;27.52;55.12;101678.25;5090306;28;20075;-68
2022/08/24 07:35:26;;;;;;;29.75;26.48;;;;;;;27.78;54.71;101680.38;5090200;28;20122;-66
2022/08/24 07:37:54;;;;;;;28.83;25.65;;;;;;;28.03;54.45;101680.75;5090203;28;20106;-71
2022/08/24 07:40:22;;;;;;;30.65;26.35;;;;;;;28.23;53.70;101673.44;5089921;28;20036;-70
2022/08/24 07:42:51;;;;;;;30.73;27.50;;;;;;;28.42;53.30;101677.38;5089872;28;20101;-70
2022/08/24 07:45:18;;;;;;;31.50;25.13;;;;;;;28.58;53.09;101678.94;5090180;28;20474;-70
2022/08/24 07:47:49;;;;;;;25.70;21.90;;;;;;;28.71;52.71;101678.97;5090132;28;20045;-70
2022/08/24 07:50:39;;;;;;;22.60;20.10;;;;;;;28.83;52.04;101670.91;5090112;28;20067;-70
2022/08/24 07:55:42;;;;;;;22.52;20.08;;;;;;;28.98;50.99;101679.91;5074613;28;20074;-70
2022/08/24 07:58:11;;;;;;;24.10;20.40;;;;;;;29.12;50.78;101683.59;5089856;28;20070;-70
2022/08/24 08:00:39;;;;;;;20.95;18.75;;;;;;;29.29;50.36;101677.44;5106849;28;20044;-70
2022/08/24 08:03:16;;;;;;;23.73;18.20;;;;;;;29.41;50.09;101681.25;5089838;28;20040;-71
2022/08/24 08:05:44;;;;;;;23.40;19.20;;;;;;;29.51;49.73;101680.00;5089845;28;20074;-70
2022/08/24 08:08:11;;;;;;;20.60;16.77;;;;;;;29.55;48.99;101686.81;5090056;28;20081;-67
2022/08/24 08:10:39;;;;;;;21.55;17.65;;;;;;;29.61;48.84;101686.81;5090751;28;20555;-69
2022/08/24 08:13:07;;;;;;;21.58;17.35;;;;;;;29.81;48.92;101695.13;5089672;28;20584;-71
2022/08/24 08:15:34;;;;;;;19.45;17.38;;;;;;;30.00;48.76;101694.25;5089705;28;20051;-70
2022/08/24 08:18:08;;;;;;;18.52;13.35;;;;;;;30.18;48.46;101701.03;5089765;28;20125;-70
2022/08/24 08:20:39;;;;;;;12.40;9.20;;;;;;;30.39;47.96;101705.44;5094685;28;20040;-66
2022/08/24 08:26:12;;;;;;;13.55;10.60;;;;;;;30.85;46.47;101703.38;5089463;28;20071;-67
2022/08/24 08:28:57;;;;;;;12.45;9.77;;;;;;;31.01;46.18;101707.53;5089600;28;20040;-67
2022/08/24 08:31:25;;;;;;;13.43;10.75;;;;;;;31.09;45.20;101706.41;5089471;28;20135;-67
2022/08/24 08:33:57;;;;;;;17.20;12.60;;;;;;;31.24;45.15;101696.75;5093135;28;20521;-67
2022/08/24 08:36:25;;;;;;;15.07;12.20;;;;;;;31.44;45.11;101704.94;5093311;28;20066;-67
2022/08/24 08:38:52;;;;;;;12.10;9.80;;;;;;;31.60;44.84;101704.38;5093307;28;20564;-67
2022/08/24 08:41:47;;;;;;;13.55;10.75;;;;;;;31.72;44.03;101703.66;5093222;28;20036;-67
2022/08/24 08:44:55;;;;;;;7.72;6.30;;;;;;;31.92;43.13;101707.06;5093626;28;20051;-67
2022/08/24 08:47:44;;;;;;;8.85;6.15;;;;;;;32.04;42.88;101707.19;5093058;28;20571;-70
2022/08/24 08:50:22;;;;;;;10.27;7.35;;;;;;;32.13;42.77;101703.03;5076640;28;20072;-70
2022/08/24 08:53:30;;;;;;;11.90;8.25;;;;;;;32.22;42.41;101702.50;5092975;28;20070;-71
2022/08/24 08:56:20;;;;;;;13.82;7.10;;;;;;;32.32;41.93;101702.00;5093088;28;20079;-70
2022/08/24 08:59:09;;;;;;;8.43;6.53;;;;;;;32.38;41.87;101697.44;5093008;28;20126;-70
2022/08/24 09:02:05;;;;;;;8.02;6.93;;;;;;;32.50;41.59;101703.91;5089333;28;20039;-69
2022/08/24 09:04:56;;;;;;;13.93;8.88;;;;;;;32.68;41.55;101697.47;5092675;28;20044;-69
2022/08/24 09:07:46;;;;;;;10.95;8.60;;;;;;;32.77;41.21;101694.19;5094028;28;20097;-68
2022/08/24 09:10:27;;;;;;;9.15;6.82;;;;;;;32.84;41.27;101694.94;5091953;28;20055;-67
2022/08/24 09:13:27;;;;;;;8.25;5.85;;;;;;;32.97;40.88;101699.47;5096649;28;20040;-67
2022/08/24 09:16:11;;;;;;;10.73;6.45;;;;;;;33.07;40.34;101696.09;5092290;28;20054;-68
2022/08/24 09:19:23;;;;;;;8.30;5.47;;;;;;;33.18;40.22;101712.81;5091802;28;20101;-67
2022/08/24 09:22:13;;;;;;;8.37;5.13;;;;;;;33.35;40.06;101701.03;5066262;28;20098;-67
2022/08/24 09:25:15;;;;;;;5.68;4.65;;;;;;;33.50;39.32;101689.47;5091626;28;20040;-67
2022/08/24 09:27:45;;;;;;;6.40;3.85;;;;;;;33.62;39.16;101699.53;5089269;28;20549;-68
2022/08/24 09:30:22;;;;;;;5.78;3.72;;;;;;;33.68;38.42;101690.19;5093250;28;20060;-68
2022/08/24 09:33:26;;;;;;;6.50;3.40;;;;;;;33.72;38.04;101696.97;5093219;28;20040;-68
2022/08/24 09:36:12;;;;;;;4.50;3.70;;;;;;;33.78;37.91;101693.22;5092373;28;20048;-68
2022/08/24 09:39:16;;;;;;;6.47;3.83;;;;;;;33.87;37.62;101695.69;5093284;28;20048;-68
2022/08/24 09:42:02;;;;;;;4.17;2.87;;;;;;;33.92;37.58;101696.66;5093271;28;20052;-68
2022/08/24 09:44:48;;;;;;;;;;;;;;;33.97;37.97;101699.56;5093011;28;20032;-68
2022/08/24 09:47:31;;;;;;;4.35;2.90;;;;;;;34.15;37.53;101695.78;5093008;28;19920;-68
2022/08/24 09:50:23;;;;;;;5.00;3.40;;;;;;;34.27;36.88;101699.41;5093266;28;20397;-71
2022/08/24 09:52:51;;;;;;;6.35;3.05;;;;;;;34.38;37.02;101700.50;5092839;28;20409;-69
2022/08/24 09:55:33;;;;;;;4.10;3.10;;;;;;;34.45;36.46;101692.84;5092928;28;20055;-70
2022/08/24 09:58:06;;;;;;;6.70;2.60;;;;;;;34.52;35.78;101698.28;5092012;28;20036;-69
2022/08/24 10:00:42;;;;;;;7.00;3.38;;;;;;;34.54;35.94;101696.09;5092413;27;20055;-68
2022/08/24 10:03:33;;;;;;;5.05;2.55;;;;;;;34.54;35.50;101699.72;5092849;28;20067;-69
2022/08/24 10:06:55;;;;;;;5.55;3.13;;;;;;;34.63;35.43;101687.09;5092707;28;20035;-69
2022/08/24 10:09:43;;;;;;;6.03;2.70;;;;;;;34.74;35.67;101679.75;5057994;28;20044;-68
2022/08/24 10:12:31;;;;;;;8.35;3.60;;;;;;;34.81;35.11;101679.59;5092490;28;20036;-68
2022/08/24 10:15:10;;;;;;;5.68;2.67;;;;;;;34.87;34.77;101673.91;5092494;28;20044;-67
2022/08/24 10:17:50;;;;;;;5.45;2.95;;;;;;;34.92;34.77;101681.53;5092022;28;20048;-68
2022/08/24 10:20:28;;;;;;;7.65;3.20;;;;;;;34.91;34.45;101675.09;5092302;28;20048;-67
2022/08/24 10:23:09;;;;;;;3.85;2.83;;;;;;;34.97;34.23;101676.06;5091721;28;20040;-67
2022/08/24 10:25:47;;;;;;;2.88;1.40;;;;;;;35.00;34.45;101673.63;5092597;28;20398;-68
2022/08/24 10:28:48;;;;;;;8.48;2.60;;;;;;;35.01;33.95;101664.16;5091626;28;20047;-70
2022/08/24 10:31:26;;;;;;;3.38;1.40;;;;;;;35.10;33.67;101667.38;5071673;28;20044;-71
2022/08/24 10:34:12;;;;;;;2.35;1.45;;;;;;;35.17;33.74;101662.47;5077702;28;20052;-71
2022/08/24 10:37:10;;;;;;;4.32;1.40;;;;;;;35.22;33.55;101668.13;5091780;28;20521;-70
2022/08/24 10:40:12;;;;;;;4.35;1.52;;;;;;;35.31;33.25;101661.03;5091771;28;20048;-70
2022/08/24 10:43:35;;;;;;;5.53;1.20;;;;;;;35.41;33.34;101662.34;5090404;28;20036;-70
2022/08/24 10:46:17;;;;;;;3.58;1.52;;;;;;;35.35;32.92;101659.47;5091671;28;20402;-71
2022/08/24 10:49:12;;;;;;;4.07;1.52;;;;;;;35.37;32.38;101652.78;5091596;28;20044;-71
2022/08/24 10:51:42;;;;;;;;;;;;;;;35.31;32.84;101654.59;5092185;28;20048;-71
2022/08/24 10:54:13;;;;;;;3.78;1.58;;;;;;;35.27;32.75;101659.84;5091545;28;19928;-71
2022/08/24 10:57:01;;;;;;;4.10;1.52;;;;;;;35.24;32.86;101656.72;5091380;27;20146;-70
2022/08/24 10:59:35;;;;;;;2.80;1.55;;;;;;;35.14;32.59;101657.38;5090403;28;20040;-70
2022/08/24 11:02:26;;;;;;;5.97;1.73;;;;;;;35.08;32.32;101652.81;5091602;28;20127;-70
2022/08/24 11:05:04;;;;;;;2.53;1.58;;;;;;;35.13;32.65;101646.47;5092077;28;20395;-71
2022/08/24 11:07:32;;;;;;;2.50;1.70;;;;;;;35.26;32.92;101654.50;5091320;28;20068;-71
2022/08/24 11:10:03;;;;;;;5.00;1.80;;;;;;;35.39;32.80;101657.00;5091189;28;20032;-70
2022/08/24 11:12:42;;;;;;;6.45;1.75;;;;;;;35.52;32.83;101653.00;5091239;28;20032;-71
2022/08/24 11:15:18;;;;;;;2.50;1.67;;;;;;;35.54;32.52;101648.88;5091278;28;20401;-70
2022/08/24 11:17:56;;;;;;;3.10;1.75;;;;;;;35.55;32.29;101655.28;5088973;28;20101;-70
2022/08/24 11:20:33;;;;;;;2.83;1.70;;;;;;;35.53;32.66;101658.34;5091180;28;20058;-70
2022/08/24 11:23:14;;;;;;;4.93;1.65;;;;;;;35.53;32.34;101652.75;5091215;28;20040;-70
2022/08/24 11:25:53;;;;;;;4.60;1.73;;;;;;;35.60;32.53;101647.00;5091215;28;20044;-70
2022/08/24 11:28:29;;;;;;;5.07;1.70;;;;;;;35.69;31.97;101647.44;5091141;28;20046;-70
2022/08/24 11:30:55;;;;;;;2.90;1.80;;;;;;;35.76;32.18;101650.88;5091287;28;20050;-70
2022/08/24 11:33:33;;;;;;;4.03;1.67;;;;;;;35.76;31.74;101640.56;5091226;28;20040;-69
2022/08/24 11:36:01;;;;;;;2.40;1.73;;;;;;;35.74;31.75;101641.91;5091232;28;20083;-70
2022/08/24 11:38:30;;;;;;;5.22;1.67;;;;;;;35.74;31.74;101642.75;5091006;28;20040;-70
2022/08/24 11:41:12;;;;;;;2.63;1.70;;;;;;;35.69;31.19;101650.22;5091100;28;20040;-70
2022/08/24 11:44:09;;;;;;;3.35;1.45;;;;;;;35.69;31.44;101641.84;5091335;28;20044;-70
2022/08/24 11:46:47;;;;;;;3.60;1.88;;;;;;;35.71;31.33;101642.44;5091186;28;20043;-70
2022/08/24 11:49:23;;;;;;;4.10;1.70;;;;;;;35.75;31.07;101644.47;5090141;28;20032;-70
2022/08/24 11:52:10;;;;;;;5.22;1.70;;;;;;;35.83;31.18;101632.84;5090996;28;20051;-70
2022/08/24 11:54:49;;;;;;;3.55;1.73;;;;;;;35.92;31.05;101636.91;5091259;28;20347;-70
2022/08/24 11:57:28;;;;;;;3.88;1.90;;;;;;;35.96;30.73;101637.22;5090316;27;20036;-71